Search METAR Data

METAR Data for ENMH:

ENMH 301350Z 16009KT CAVOK 19/10 Q1010